Time;durP1;ratioP1;P1;durP2;ratioP2;P2;SDS_P1;SDS_P2;PMS_P1;PMS_P2;Temp;Humidity;BMP_temperature;BMP_pressure;BME280_temperature;BME280_humidity;BME280_pressure;Samples;Min_cycle;Max_cycle;Signal;HPM_P1;HPM_P2
2022/11/16 00:01:25;;;;;;;11.82;7.40;;;11.50;99.90;;;;;;4995218;28;20018;-78
2022/11/16 00:03:52;;;;;;;16.33;9.20;;;10.90;99.90;;;;;;4995499;28;20389;-78
2022/11/16 00:06:19;;;;;;;14.90;8.77;;;11.50;99.90;;;;;;4995576;28;20023;-78
2022/11/16 00:09:20;;;;;;;16.02;9.35;;;11.00;99.90;;;;;;4995077;28;20030;-78
2022/11/16 00:11:33;;;;;;;15.07;9.25;;;11.70;99.90;;;;;;4994838;28;20029;-78
2022/11/16 00:13:59;;;;;;;13.77;9.52;;;11.50;99.90;;;;;;4994695;28;20077;-78
2022/11/16 00:16:24;;;;;;;15.57;9.52;;;11.60;99.90;;;;;;4994317;28;20105;-78
2022/11/16 00:18:56;;;;;;;15.65;9.93;;;11.10;99.90;;;;;;4994408;28;20045;-78
2022/11/16 00:21:22;;;;;;;16.70;9.43;;;11.60;99.90;;;;;;4994617;28;20062;-78
2022/11/16 00:23:47;;;;;;;16.33;9.93;;;10.90;99.90;;;;;;4994705;28;20128;-78
2022/11/16 00:26:13;;;;;;;14.90;10.15;;;11.00;99.90;;;;;;4994834;28;20532;-78
2022/11/16 00:28:38;;;;;;;14.88;10.13;;;11.00;99.90;;;;;;4995448;28;20417;-77
2022/11/16 00:31:05;;;;;;;15.45;10.02;;;11.60;99.90;;;;;;4995177;28;20018;-78
2022/11/16 00:33:32;;;;;;;16.05;10.30;;;11.10;99.90;;;;;;4994833;28;20058;-78
2022/11/16 00:36:00;;;;;;;14.27;10.02;;;11.70;99.90;;;;;;4994662;28;20031;-78
2022/11/16 00:38:26;;;;;;;17.55;10.05;;;11.70;99.90;;;;;;5002584;28;20097;-78
2022/11/16 00:40:52;;;;;;;15.27;9.88;;;11.00;99.90;;;;;;5015175;28;20464;-78
2022/11/16 00:43:17;;;;;;;15.25;10.60;;;10.80;99.90;;;;;;5015401;28;20060;-78
2022/11/16 00:45:43;;;;;;;14.82;10.60;;;11.60;99.90;;;;;;5015185;28;20053;-78
2022/11/16 00:48:09;;;;;;;16.23;10.23;;;11.30;99.90;;;;;;5015074;28;20033;-78
2022/11/16 00:50:35;;;;;;;15.82;10.38;;;10.80;99.90;;;;;;5001532;28;20033;-78
2022/11/16 00:53:01;;;;;;;14.10;9.80;;;11.00;99.90;;;;;;4995873;28;20030;-78
2022/11/16 00:55:26;;;;;;;13.30;9.25;;;10.80;99.90;;;;;;5008695;28;20420;-78
2022/11/16 00:57:52;;;;;;;21.50;11.32;;;11.60;99.90;;;;;;5014618;28;20029;-78
2022/11/16 01:00:18;;;;;;;14.65;9.77;;;11.60;99.90;;;;;;5015103;28;20049;-78
2022/11/16 01:02:44;;;;;;;16.10;11.00;;;11.40;99.90;;;;;;5015298;28;20030;-78
2022/11/16 01:05:10;;;;;;;18.52;10.80;;;11.30;99.90;;;;;;5014933;28;20113;-78
2022/11/16 01:07:38;;;;;;;14.77;10.35;;;11.20;99.90;;;;;;5014443;28;20034;-78
2022/11/16 01:10:06;;;;;;;14.43;10.43;;;10.90;99.90;;;;;;4999916;28;20019;-78
2022/11/16 01:12:32;;;;;;;16.60;11.13;;;11.20;99.90;;;;;;4993632;28;20128;-78
2022/11/16 01:14:57;;;;;;;16.00;10.88;;;10.80;99.90;;;;;;4993763;28;20050;-77
2022/11/16 01:17:23;;;;;;;14.60;10.43;;;10.80;99.90;;;;;;5013442;28;20037;-78
2022/11/16 01:19:49;;;;;;;15.68;9.98;;;10.90;99.90;;;;;;5013498;28;20022;-78
2022/11/16 01:22:14;;;;;;;16.63;10.07;;;10.90;99.90;;;;;;5013593;28;20643;-78
2022/11/16 01:24:40;;;;;;;16.63;10.88;;;10.90;99.90;;;;;;5013314;28;20034;-78
2022/11/16 01:27:05;;;;;;;16.63;11.25;;;10.90;99.90;;;;;;5013328;28;20030;-78
2022/11/16 01:29:31;;;;;;;16.25;11.20;;;11.60;99.90;;;;;;5013323;28;20018;-78
2022/11/16 01:31:57;;;;;;;17.10;10.50;;;11.00;99.90;;;;;;5013336;28;20021;-78
2022/11/16 01:34:23;;;;;;;15.32;9.82;;;11.20;99.90;;;;;;5012959;28;20022;-77
2022/11/16 01:36:49;;;;;;;17.15;10.73;;;11.60;99.90;;;;;;5013231;28;20064;-78
2022/11/16 01:39:15;;;;;;;15.15;10.70;;;10.80;99.90;;;;;;5013450;28;20026;-77
2022/11/16 01:41:42;;;;;;;15.95;10.55;;;11.30;99.90;;;;;;5014298;28;20033;-78
2022/11/16 01:44:14;;;;;;;16.25;11.05;;;11.60;99.90;;;;;;5013967;28;20026;-77
2022/11/16 01:46:41;;;;;;;17.23;10.85;;;11.40;99.90;;;;;;5013720;28;20022;-78
2022/11/16 01:49:12;;;;;;;15.70;11.30;;;11.40;99.90;;;;;;5013826;28;20026;-78
2022/11/16 01:51:40;;;;;;;16.27;10.98;;;11.60;99.90;;;;;;5013522;28;20034;-78
2022/11/16 01:54:15;;;;;;;17.52;11.95;;;10.80;99.90;;;;;;5013430;28;20030;-77
2022/11/16 01:56:44;;;;;;;19.65;10.80;;;10.90;99.90;;;;;;5013113;28;20664;-78
2022/11/16 01:59:11;;;;;;;16.83;10.45;;;11.40;99.90;;;;;;5012676;28;20025;-78
2022/11/16 02:01:37;;;;;;;15.60;10.77;;;11.20;99.90;;;;;;5012869;28;20057;-78
2022/11/16 02:04:03;;;;;;;17.40;12.13;;;10.80;99.90;;;;;;5012855;28;20037;-78
2022/11/16 02:06:35;;;;;;;15.75;10.63;;;11.40;99.90;;;;;;5012803;28;20030;-77
2022/11/16 02:12:24;;;;;;;20.67;10.10;;;11.10;99.90;;;;;;5016793;28;20045;-78
2022/11/16 02:15:23;;;;;;;18.75;12.05;;;11.40;99.90;;;;;;5016449;28;20030;-78
2022/11/16 02:18:23;;;;;;;15.45;10.55;;;11.00;99.90;;;;;;5016636;28;20052;-78
2022/11/16 02:21:03;;;;;;;17.25;11.30;;;11.60;99.90;;;;;;5016711;28;20178;-78
2022/11/16 02:23:40;;;;;;;;;;;11.30;99.90;;;;;;5016955;28;20026;-77
2022/11/16 02:26:25;;;;;;;13.85;9.77;;;11.30;99.90;;;;;;5016326;28;19963;-77
2022/11/16 02:29:26;;;;;;;14.80;10.07;;;11.10;99.90;;;;;;4996834;28;20062;-77
2022/11/16 02:32:19;;;;;;;18.63;11.15;;;11.40;99.90;;;;;;4955615;28;20517;-78
2022/11/16 02:34:56;;;;;;;16.90;10.60;;;10.90;99.90;;;;;;4995904;28;20034;-78
2022/11/16 02:37:23;;;;;;;14.60;10.38;;;11.00;99.90;;;;;;4996600;28;20029;-78
2022/11/16 02:39:54;;;;;;;16.67;11.02;;;11.30;99.90;;;;;;4996557;28;20031;-78
2022/11/16 02:42:27;;;;;;;16.73;11.02;;;10.90;99.90;;;;;;4997066;28;20512;-78
2022/11/16 02:44:54;;;;;;;20.05;12.07;;;11.40;99.90;;;;;;4996884;28;20069;-78
2022/11/16 02:47:25;;;;;;;17.23;10.82;;;11.00;99.90;;;;;;4996479;28;20109;-78
2022/11/16 02:50:13;;;;;;;15.60;10.32;;;11.40;99.90;;;;;;4996726;28;20097;-78
2022/11/16 02:52:38;;;;;;;17.65;10.85;;;11.10;99.90;;;;;;5014128;28;20036;-78
2022/11/16 02:55:06;;;;;;;16.98;11.50;;;11.00;99.90;;;;;;5016579;28;20096;-77
2022/11/16 02:57:40;;;;;;;17.15;10.50;;;11.10;99.90;;;;;;5016554;28;20076;-78
2022/11/16 03:00:11;;;;;;;15.85;10.60;;;11.10;99.90;;;;;;5016703;28;20030;-78
2022/11/16 03:02:50;;;;;;;11.93;8.88;;;11.10;99.90;;;;;;5016178;28;20046;-78
2022/11/16 03:05:30;;;;;;;16.67;10.82;;;11.40;99.90;;;;;;5016423;28;20030;-78
2022/11/16 03:08:30;;;;;;;14.85;10.30;;;11.50;99.90;;;;;;5016832;28;20114;-78
2022/11/16 03:13:49;;;;;;;13.52;10.02;;;11.40;99.90;;;;;;4996647;28;20487;-78
2022/11/16 03:16:24;;;;;;;15.95;10.27;;;11.20;99.90;;;;;;4996801;28;20446;-78
2022/11/16 03:18:51;;;;;;;17.52;10.27;;;11.50;99.90;;;;;;4996449;28;20022;-78
2022/11/16 03:21:40;;;;;;;15.95;11.05;;;11.50;99.90;;;;;;4997122;28;20034;-78
2022/11/16 03:24:06;;;;;;;15.13;10.90;;;11.10;99.90;;;;;;5006741;28;20042;-78
2022/11/16 03:26:48;;;;;;;17.40;8.63;;;11.60;99.90;;;;;;5015807;28;20067;-78
2022/11/16 03:29:27;;;;;;;14.77;9.68;;;11.00;99.90;;;;;;5016038;28;20029;-78
2022/11/16 03:31:58;;;;;;;14.75;10.48;;;11.10;99.90;;;;;;5015829;28;20507;-78
2022/11/16 03:34:30;;;;;;;15.50;10.05;;;11.30;99.90;;;;;;5015964;28;20030;-78
2022/11/16 03:36:58;;;;;;;13.90;10.15;;;11.00;99.90;;;;;;5016102;28;20287;-78
2022/11/16 03:39:29;;;;;;;21.25;10.55;;;11.40;99.90;;;;;;5016324;28;20026;-78
2022/11/16 03:41:57;;;;;;;58.35;13.32;;;11.20;99.90;;;;;;5016083;28;20030;-78
2022/11/16 03:44:23;;;;;;;14.95;10.02;;;11.70;99.90;;;;;;5016205;28;20025;-78
2022/11/16 03:46:48;;;;;;;15.27;10.73;;;11.60;99.90;;;;;;5015975;28;20101;-78
2022/11/16 03:49:14;;;;;;;17.23;11.45;;;11.00;99.90;;;;;;5015795;28;20022;-78
2022/11/16 03:51:40;;;;;;;16.40;10.93;;;11.40;99.90;;;;;;5015627;28;20022;-78
2022/11/16 03:54:06;;;;;;;17.40;11.27;;;11.00;99.90;;;;;;5016378;28;20032;-78
2022/11/16 03:56:31;;;;;;;16.10;10.80;;;11.60;99.90;;;;;;5015831;28;20100;-78
2022/11/16 03:58:57;;;;;;;17.75;10.90;;;11.10;99.90;;;;;;5015617;28;20022;-78
2022/11/16 04:01:23;;;;;;;16.23;9.90;;;11.20;99.90;;;;;;5008427;28;20025;-78
2022/11/16 04:03:48;;;;;;;17.52;10.25;;;11.20;99.90;;;;;;5000034;28;20053;-78
2022/11/16 04:25:49;;;;;;;14.73;8.65;;;11.70;99.90;;;;;;4997600;28;20520;-78
2022/11/16 04:28:18;;;;;;;37.55;11.07;;;10.90;99.90;;;;;;5015747;28;20072;-78
2022/11/16 04:39:04;;;;;;;18.48;10.65;;;11.30;99.90;;;;;;5015978;28;20040;-78
2022/11/16 04:44:15;;;;;;;23.83;11.27;;;11.40;99.90;;;;;;5003449;28;20052;-78
2022/11/16 04:49:25;;;;;;;18.85;10.95;;;11.90;99.90;;;;;;4996250;28;20033;-78
2022/11/16 04:51:51;;;;;;;20.13;11.02;;;11.20;99.90;;;;;;5005093;28;20105;-78
2022/11/16 04:54:17;;;;;;;18.13;11.38;;;11.30;99.90;;;;;;5007868;28;20420;-78
2022/11/16 04:56:42;;;;;;;21.08;11.18;;;11.50;99.90;;;;;;5015529;28;20025;-78
2022/11/16 04:59:08;;;;;;;21.90;12.07;;;11.70;99.90;;;;;;5016006;28;20026;-78
2022/11/16 05:04:18;;;;;;;18.65;10.55;;;11.70;99.90;;;;;;5008062;28;20061;-78
2022/11/16 05:06:44;;;;;;;17.55;10.10;;;11.60;99.90;;;;;;5015180;28;20018;-78
2022/11/16 05:09:09;;;;;;;22.35;9.82;;;11.20;99.90;;;;;;5015431;28;20033;-78
2022/11/16 05:11:35;;;;;;;18.00;9.75;;;11.60;99.90;;;;;;5015765;28;20017;-78
2022/11/16 05:14:01;;;;;;;20.55;10.32;;;11.40;99.90;;;;;;5005911;28;20031;-78
2022/11/16 05:16:26;;;;;;;18.40;9.80;;;11.40;99.90;;;;;;4995605;28;20051;-78
2022/11/16 05:21:36;;;;;;;16.50;9.68;;;11.10;99.90;;;;;;5012177;28;20742;-78
2022/11/16 05:26:46;;;;;;;18.42;9.13;;;11.00;99.90;;;;;;5015182;28;20037;-78
2022/11/16 05:29:12;;;;;;;15.70;9.27;;;11.20;99.90;;;;;;5015106;28;20381;-78
2022/11/16 05:31:37;;;;;;;18.08;10.60;;;11.10;99.90;;;;;;4996732;28;20153;-78
2022/11/16 05:34:03;;;;;;;16.25;9.95;;;11.50;99.90;;;;;;4995147;28;20160;-78
2022/11/16 05:36:29;;;;;;;20.95;10.98;;;10.80;99.90;;;;;;4995871;28;20022;-78
2022/11/16 05:38:55;;;;;;;21.10;10.95;;;10.90;99.90;;;;;;4995106;28;20426;-78
2022/11/16 05:41:20;;;;;;;18.88;10.77;;;10.90;99.90;;;;;;5012848;28;20049;-78
2022/11/16 05:43:46;;;;;;;21.23;11.27;;;11.00;99.90;;;;;;5024515;28;20484;-78
2022/11/16 05:46:11;;;;;;;16.23;10.30;;;11.60;99.90;;;;;;5019389;28;20026;-78
2022/11/16 05:48:37;;;;;;;18.10;10.50;;;11.50;99.90;;;;;;5018516;28;20050;-78
2022/11/16 05:51:02;;;;;;;16.13;9.15;;;11.00;99.90;;;;;;5010341;28;20522;-78
2022/11/16 05:53:28;;;;;;;18.90;9.85;;;11.50;99.90;;;;;;5012607;28;20038;-79
2022/11/16 05:55:54;;;;;;;15.82;10.07;;;11.40;99.90;;;;;;5015499;28;20068;-78
2022/11/16 05:58:19;;;;;;;17.92;10.45;;;11.40;99.90;;;;;;5017952;28;20026;-78
2022/11/16 06:00:45;;;;;;;18.40;10.30;;;11.20;99.90;;;;;;5017818;28;20022;-78
2022/11/16 06:03:11;;;;;;;20.27;10.25;;;11.30;99.90;;;;;;5018216;28;20022;-78
2022/11/16 06:05:37;;;;;;;21.00;10.80;;;10.80;99.90;;;;;;5017903;28;20376;-79
2022/11/16 06:08:03;;;;;;;18.52;10.85;;;10.70;99.90;;;;;;5018152;28;20022;-78
2022/11/16 06:10:28;;;;;;;18.92;10.88;;;10.80;99.90;;;;;;5018322;28;20029;-78
2022/11/16 06:12:54;;;;;;;23.17;10.80;;;11.20;99.90;;;;;;5018356;28;20439;-78
2022/11/16 06:15:19;;;;;;;15.88;9.75;;;10.80;99.90;;;;;;5017890;28;20058;-78
2022/11/16 06:17:45;;;;;;;14.45;9.27;;;11.00;99.90;;;;;;5018128;28;20025;-78
2022/11/16 06:20:11;;;;;;;18.80;10.70;;;10.60;99.90;;;;;;5017742;28;20105;-79
2022/11/16 06:22:36;;;;;;;19.60;10.80;;;11.30;99.90;;;;;;5017893;28;20033;-79
2022/11/16 06:25:03;;;;;;;22.58;10.40;;;10.90;99.90;;;;;;4999677;28;20022;-79
2022/11/16 06:27:29;;;;;;;20.48;10.73;;;10.70;99.90;;;;;;4998785;28;20027;-79
2022/11/16 06:29:54;;;;;;;50.60;12.30;;;10.50;99.90;;;;;;5003407;28;20373;-79
2022/11/16 06:32:20;;;;;;;15.25;9.82;;;11.00;99.90;;;;;;5017834;28;20030;-79
2022/11/16 06:34:46;;;;;;;18.85;10.75;;;11.20;99.90;;;;;;5018276;28;20580;-79
2022/11/16 06:37:11;;;;;;;18.75;10.13;;;11.30;99.90;;;;;;5018191;28;20022;-79
2022/11/16 06:39:37;;;;;;;16.08;9.73;;;10.70;99.90;;;;;;5013728;28;20093;-80
2022/11/16 06:42:03;;;;;;;15.35;8.40;;;10.60;99.90;;;;;;5008695;28;20115;-78
2022/11/16 06:44:29;;;;;;;12.48;8.48;;;10.70;99.90;;;;;;5018568;28;20076;-79
2022/11/16 06:46:54;;;;;;;14.50;9.02;;;10.90;99.90;;;;;;5012422;28;20026;-78
2022/11/16 06:49:20;;;;;;;12.77;7.97;;;11.20;99.90;;;;;;5010103;28;20022;-78
2022/11/16 06:51:45;;;;;;;10.73;7.13;;;10.70;99.90;;;;;;5009385;28;20030;-78
2022/11/16 06:54:19;;;;;;;13.93;8.60;;;10.60;99.90;;;;;;5016775;28;20014;-78
2022/11/16 06:56:44;;;;;;;11.98;8.40;;;10.50;99.90;;;;;;5016901;28;20436;-78
2022/11/16 06:59:10;;;;;;;11.73;7.38;;;11.10;99.90;;;;;;5017907;28;20465;-78
2022/11/16 07:01:36;;;;;;;11.25;7.22;;;11.00;99.90;;;;;;5017766;28;20018;-78
2022/11/16 07:04:01;;;;;;;10.32;6.35;;;11.20;99.90;;;;;;5018291;28;20030;-78
2022/11/16 07:06:28;;;;;;;9.55;6.50;;;10.40;99.90;;;;;;5018470;28;20062;-79
2022/11/16 07:08:54;;;;;;;11.57;6.00;;;10.70;99.90;;;;;;5017877;28;20105;-78
2022/11/16 07:11:20;;;;;;;10.32;6.18;;;10.40;99.90;;;;;;5004752;28;20089;-79
2022/11/16 07:13:47;;;;;;;13.68;6.70;;;10.60;99.90;;;;;;5001340;28;20022;-78
2022/11/16 07:16:12;;;;;;;10.77;6.38;;;10.50;99.90;;;;;;4998010;28;20053;-78
2022/11/16 07:18:40;;;;;;;9.82;6.47;;;10.60;99.90;;;;;;4998378;28;20022;-78
2022/11/16 07:21:06;;;;;;;10.82;5.82;;;10.70;99.90;;;;;;5006267;28;20061;-78
2022/11/16 07:23:32;;;;;;;10.98;6.88;;;10.80;99.90;;;;;;4998625;28;20469;-79
2022/11/16 07:26:02;;;;;;;13.27;6.80;;;10.80;99.90;;;;;;5006789;28;20073;-78
2022/11/16 07:28:28;;;;;;;11.23;6.28;;;10.40;99.90;;;;;;5004971;28;20018;-78
2022/11/16 07:31:04;;;;;;;12.32;7.07;;;10.50;99.90;;;;;;4996225;28;20023;-78
2022/11/16 07:33:30;;;;;;;13.02;7.25;;;10.70;99.90;;;;;;4996984;28;20030;-78
2022/11/16 07:36:07;;;;;;;14.50;7.00;;;10.40;99.90;;;;;;4998148;28;20024;-79
2022/11/16 07:38:33;;;;;;;15.73;7.70;;;10.80;99.90;;;;;;5000095;28;20038;-78
2022/11/16 07:41:19;;;;;;;16.13;7.80;;;10.30;99.90;;;;;;4999540;28;20026;-78
2022/11/16 07:43:45;;;;;;;12.65;7.82;;;10.40;99.90;;;;;;4995269;28;20026;-79
2022/11/16 07:46:16;;;;;;;15.48;8.50;;;10.70;99.90;;;;;;4994770;28;20109;-79
2022/11/16 07:48:43;;;;;;;18.40;8.95;;;10.10;99.90;;;;;;4997315;28;20408;-79
2022/11/16 07:51:11;;;;;;;17.92;8.82;;;10.30;99.90;;;;;;5001984;28;20059;-78
2022/11/16 07:53:37;;;;;;;17.80;8.90;;;10.20;99.90;;;;;;4999777;28;20546;-79
2022/11/16 07:56:04;;;;;;;14.48;8.48;;;10.20;99.90;;;;;;5002585;28;20072;-79
2022/11/16 07:58:32;;;;;;;14.27;8.98;;;10.40;99.90;;;;;;5000576;28;20030;-78
2022/11/16 08:01:12;;;;;;;18.05;8.95;;;10.60;99.90;;;;;;5005033;28;20026;-79
2022/11/16 08:03:38;;;;;;;18.45;9.48;;;10.80;99.90;;;;;;5002244;28;20036;-78
2022/11/16 08:06:15;;;;;;;17.45;9.10;;;10.30;99.90;;;;;;4997028;28;20034;-79
2022/11/16 08:08:40;;;;;;;17.98;8.70;;;10.40;99.90;;;;;;5003652;28;20107;-78
2022/11/16 08:11:08;;;;;;;17.90;8.52;;;10.90;99.90;;;;;;5003882;28;20029;-78
2022/11/16 08:13:35;;;;;;;14.60;8.75;;;10.30;99.90;;;;;;4999840;28;20033;-78
2022/11/16 08:16:13;;;;;;;14.57;8.93;;;10.20;99.90;;;;;;4991519;28;20101;-78
2022/11/16 08:18:40;;;;;;;15.60;9.13;;;10.60;99.90;;;;;;4994654;28;20481;-79
2022/11/16 08:21:07;;;;;;;17.15;9.00;;;11.20;99.90;;;;;;4996257;28;20011;-79
2022/11/16 08:23:33;;;;;;;16.35;8.38;;;10.70;99.90;;;;;;4996924;28;20080;-78
2022/11/16 08:26:05;;;;;;;20.20;9.23;;;10.50;99.90;;;;;;5005545;28;20420;-78
2022/11/16 08:28:31;;;;;;;20.92;9.60;;;10.50;99.90;;;;;;5014427;28;20129;-78
2022/11/16 08:30:57;;;;;;;15.40;8.65;;;11.10;99.90;;;;;;5013037;28;20018;-78
2022/11/16 08:33:24;;;;;;;18.48;9.18;;;11.30;99.90;;;;;;4999229;28;20077;-78
2022/11/16 08:35:53;;;;;;;17.95;8.80;;;10.50;99.90;;;;;;5003379;28;20449;-78
2022/11/16 08:38:19;;;;;;;19.63;9.27;;;11.30;99.90;;;;;;5000804;28;20380;-79
2022/11/16 08:40:45;;;;;;;22.83;9.88;;;11.30;99.90;;;;;;5009059;28;20264;-79
2022/11/16 08:43:11;;;;;;;18.85;9.18;;;10.70;99.90;;;;;;5004511;28;20106;-79
2022/11/16 08:45:37;;;;;;;21.40;9.85;;;10.80;99.90;;;;;;4997133;28;20433;-79
2022/11/16 08:48:04;;;;;;;19.17;9.75;;;11.60;99.90;;;;;;4995052;28;20373;-79
2022/11/16 08:50:30;;;;;;;19.42;9.38;;;11.50;99.90;;;;;;5000760;28;20076;-78
2022/11/16 08:52:56;;;;;;;18.08;9.77;;;11.40;99.90;;;;;;4999200;28;20029;-79
2022/11/16 08:55:22;;;;;;;24.60;11.23;;;10.80;99.90;;;;;;5005994;28;20022;-79
2022/11/16 08:57:47;;;;;;;21.02;10.23;;;11.80;99.90;;;;;;5011070;28;20217;-79
2022/11/16 09:00:13;;;;;;;24.05;10.98;;;11.60;99.90;;;;;;5008956;28;20092;-79
2022/11/16 09:02:39;;;;;;;24.65;10.40;;;11.30;99.90;;;;;;5003676;28;20034;-78
2022/11/16 09:05:06;;;;;;;22.63;11.40;;;11.40;99.90;;;;;;5004412;28;20200;-77
2022/11/16 09:07:32;;;;;;;23.27;11.48;;;11.70;99.90;;;;;;5003231;28;20468;-78
2022/11/16 09:09:58;;;;;;;29.17;14.48;;;12.80;99.90;;;;;;5005682;28;20026;-78
2022/11/16 09:12:24;;;;;;;25.48;11.98;;;12.40;99.90;;;;;;5007517;28;20025;-77
2022/11/16 09:14:50;;;;;;;22.80;11.10;;;12.60;99.90;;;;;;4994351;28;20022;-78
2022/11/16 09:17:15;;;;;;;19.38;11.55;;;13.90;99.90;;;;;;4995645;28;20054;-78
2022/11/16 09:19:41;;;;;;;20.50;10.45;;;12.30;99.90;;;;;;5013044;28;20030;-78
2022/11/16 09:22:07;;;;;;;20.05;10.18;;;12.00;99.90;;;;;;5013037;28;20722;-79
2022/11/16 09:24:33;;;;;;;19.45;10.70;;;13.70;99.90;;;;;;5001269;28;20114;-79
2022/11/16 09:27:00;;;;;;;17.10;10.02;;;12.50;99.90;;;;;;4997882;28;20069;-79
2022/11/16 09:29:26;;;;;;;16.05;9.07;;;12.40;99.90;;;;;;4997742;28;20026;-79
2022/11/16 09:31:52;;;;;;;16.63;8.23;;;13.60;99.90;;;;;;4998394;28;20029;-79
2022/11/16 09:34:18;;;;;;;18.92;9.05;;;12.10;99.90;;;;;;5004614;28;20443;-79
2022/11/16 09:36:43;;;;;;;15.32;8.07;;;12.00;99.90;;;;;;4994385;28;20026;-79
2022/11/16 09:39:11;;;;;;;12.00;6.97;;;12.50;99.90;;;;;;5009992;28;20026;-79
2022/11/16 09:41:47;;;;;;;13.05;6.60;;;11.30;99.90;;;;;;5001481;28;20022;-79
2022/11/16 09:44:26;;;;;;;12.23;7.00;;;12.60;99.90;;;;;;4994812;28;20042;-79
2022/11/16 09:46:57;;;;;;;9.63;5.50;;;12.30;99.90;;;;;;4993487;28;20030;-79
2022/11/16 09:49:28;;;;;;;10.82;4.78;;;10.90;99.90;;;;;;5008719;28;20022;-79
2022/11/16 09:51:59;;;;;;;8.23;4.57;;;11.10;99.90;;;;;;4995369;28;20035;-79
2022/11/16 09:54:35;;;;;;;8.88;4.18;;;12.20;99.90;;;;;;4991433;28;20031;-79
2022/11/16 09:57:05;;;;;;;8.48;4.72;;;12.30;99.90;;;;;;4999982;28;20018;-79
2022/11/16 09:59:39;;;;;;;9.25;4.63;;;10.50;99.90;;;;;;5003269;28;20041;-79
2022/11/16 10:02:24;;;;;;;14.38;5.30;;;10.60;99.90;;;;;;4998442;28;20080;-80
2022/11/16 10:05:19;;;;;;;9.52;5.38;;;11.80;99.90;;;;;;5001283;28;20401;-80
2022/11/16 10:08:02;;;;;;;8.57;4.85;;;10.80;99.90;;;;;;5013497;28;20129;-80
2022/11/16 10:10:37;;;;;;;11.82;5.20;;;11.50;99.90;;;;;;5001640;28;20037;-79
2022/11/16 10:13:14;;;;;;;12.50;5.50;;;11.80;99.90;;;;;;5003187;28;20027;-79
2022/11/16 10:16:04;;;;;;;11.63;5.43;;;12.00;99.90;;;;;;4991627;28;20133;-78
2022/11/16 10:19:08;;;;;;;11.20;5.45;;;11.30;99.90;;;;;;4995352;28;20034;-79
2022/11/16 10:21:56;;;;;;;11.02;5.18;;;11.00;99.90;;;;;;4989114;28;20102;-78
2022/11/16 10:24:32;;;;;;;11.65;4.80;;;11.80;99.90;;;;;;4993197;28;20039;-78
2022/11/16 10:27:23;;;;;;;13.52;5.55;;;11.50;99.90;;;;;;4993205;28;20465;-79
2022/11/16 10:30:11;;;;;;;11.30;4.95;;;11.90;99.90;;;;;;5000120;28;20072;-78
2022/11/16 10:33:03;;;;;;;10.68;6.07;;;12.10;99.90;;;;;;5003838;28;20026;-79
2022/11/16 10:35:31;;;;;;;12.65;5.10;;;12.00;99.90;;;;;;4993647;28;20034;-76
2022/11/16 10:38:02;;;;;;;13.10;5.25;;;10.40;99.90;;;;;;5002164;28;20025;-78
2022/11/16 10:40:29;;;;;;;12.30;5.55;;;11.60;99.90;;;;;;5007512;28;20023;-79
2022/11/16 10:43:14;;;;;;;11.75;5.30;;;10.50;99.90;;;;;;5004491;28;20064;-79
2022/11/16 10:46:18;;;;;;;9.30;4.50;;;10.70;99.90;;;;;;5009185;28;20029;-79
2022/11/16 10:49:04;;;;;;;10.00;4.38;;;11.60;99.90;;;;;;5009703;28;20042;-79
2022/11/16 10:51:29;;;;;;;13.07;4.03;;;11.50;99.90;;;;;;4996412;28;20045;-78
2022/11/16 10:53:55;;;;;;;11.07;4.78;;;11.00;99.90;;;;;;5005913;28;20022;-79
2022/11/16 10:56:31;;;;;;;10.77;4.63;;;10.60;99.90;;;;;;4999871;28;20018;-79
2022/11/16 10:58:58;;;;;;;12.20;4.30;;;10.40;99.90;;;;;;4994847;28;20389;-79
2022/11/16 11:01:31;;;;;;;9.07;5.03;;;10.60;99.90;;;;;;5004695;28;20038;-79
2022/11/16 11:04:11;;;;;;;15.40;5.97;;;11.50;99.90;;;;;;5013133;28;20035;-79
2022/11/16 11:06:37;;;;;;;14.50;6.30;;;10.80;99.90;;;;;;4999894;28;20290;-79
2022/11/16 11:09:34;;;;;;;16.92;7.00;;;10.80;99.90;;;;;;4993861;28;20032;-79
2022/11/16 11:15:10;;;;;;;15.35;7.97;;;11.50;99.90;;;;;;4995625;28;20053;-79
2022/11/16 11:17:37;;;;;;;14.07;8.18;;;11.30;99.90;;;;;;4999999;28;20046;-79
2022/11/16 11:20:15;;;;;;;16.17;8.35;;;11.30;99.90;;;;;;4995164;28;20069;-79
2022/11/16 11:23:00;;;;;;;17.98;8.90;;;11.90;99.90;;;;;;4994212;28;20430;-79
2022/11/16 11:25:32;;;;;;;17.67;9.60;;;11.80;99.90;;;;;;4996994;28;20533;-79
2022/11/16 11:28:27;;;;;;;16.63;9.40;;;13.20;99.90;;;;;;4993727;28;20029;-78
2022/11/16 11:30:58;;;;;;;20.30;10.38;;;12.30;99.90;;;;;;5009064;28;20127;-78
2022/11/16 11:33:28;;;;;;;13.95;8.50;;;12.60;99.90;;;;;;5016068;28;20061;-79
2022/11/16 11:36:06;;;;;;;15.10;8.25;;;12.50;99.90;;;;;;5016064;28;20481;-79
2022/11/16 11:38:34;;;;;;;14.98;8.77;;;12.20;99.90;;;;;;5016263;28;20049;-79
2022/11/16 11:41:05;;;;;;;16.20;8.80;;;13.10;99.90;;;;;;5014952;28;20022;-78
2022/11/16 11:43:32;;;;;;;19.58;9.70;;;13.10;99.90;;;;;;5001432;28;20030;-78
2022/11/16 11:46:14;;;;;;;15.45;6.72;;;12.60;99.90;;;;;;4996236;28;20026;-79
2022/11/16 11:48:50;;;;;;;14.27;6.82;;;13.10;99.90;;;;;;4995794;28;20460;-78
2022/11/16 11:51:28;;;;;;;12.55;5.95;;;13.60;99.90;;;;;;4998624;28;20101;-79
2022/11/16 11:53:56;;;;;;;15.32;6.00;;;13.60;99.90;;;;;;5007193;28;20030;-79
2022/11/16 11:56:23;;;;;;;12.20;6.28;;;13.70;99.90;;;;;;5013414;28;20068;-79
2022/11/16 11:58:50;;;;;;;15.13;6.05;;;13.60;99.90;;;;;;5019834;28;20022;-80
2022/11/16 12:01:45;;;;;;;14.25;5.43;;;12.70;99.90;;;;;;5015657;28;20045;-80
2022/11/16 12:04:29;;;;;;;11.98;5.30;;;12.70;99.90;;;;;;5009100;28;20511;-80
2022/11/16 12:07:06;;;;;;;12.85;5.25;;;13.40;99.90;;;;;;5007079;28;20030;-79
2022/11/16 12:09:56;;;;;;;10.70;5.00;;;13.40;99.90;;;;;;5004760;28;20022;-79
2022/11/16 12:12:35;;;;;;;9.40;4.80;;;13.10;99.90;;;;;;5006612;28;20022;-79
2022/11/16 12:15:25;;;;;;;11.50;5.13;;;12.70;99.90;;;;;;4999366;28;20026;-79
2022/11/16 12:18:08;;;;;;;;;;;12.50;99.90;;;;;;5004192;28;20026;-79
2022/11/16 12:20:40;;;;;;;7.82;4.80;;;13.30;99.90;;;;;;5005967;28;19909;-78
2022/11/16 12:23:24;;;;;;;8.88;4.18;;;12.80;99.90;;;;;;4997074;28;20042;-79
2022/11/16 12:26:12;;;;;;;9.75;4.20;;;12.50;99.90;;;;;;5006145;28;20026;-77
2022/11/16 12:28:47;;;;;;;12.55;5.00;;;13.10;99.90;;;;;;4992790;28;20030;-77
2022/11/16 12:31:44;;;;;;;8.45;3.92;;;12.70;99.90;;;;;;4997562;28;20018;-77
2022/11/16 12:34:32;;;;;;;5.45;3.70;;;13.20;99.90;;;;;;4994772;28;20026;-77
2022/11/16 12:37:19;;;;;;;10.82;4.05;;;12.70;99.90;;;;;;5000832;28;20113;-77
2022/11/16 12:40:12;;;;;;;10.93;4.05;;;12.50;99.90;;;;;;5009716;28;20030;-77
2022/11/16 12:43:04;;;;;;;10.43;3.70;;;12.70;99.90;;;;;;4998512;28;20022;-77
2022/11/16 12:45:41;;;;;;;7.55;3.42;;;12.80;99.90;;;;;;4993630;28;20107;-77
2022/11/16 12:48:26;;;;;;;8.85;3.80;;;12.70;99.90;;;;;;4998623;28;20039;-77
2022/11/16 12:51:16;;;;;;;9.85;3.38;;;12.60;99.90;;;;;;5004707;28;20538;-76
2022/11/16 12:53:54;;;;;;;6.78;3.28;;;12.80;99.90;;;;;;5001649;28;20420;-76
2022/11/16 12:56:22;;;;;;;7.22;3.15;;;11.90;99.90;;;;;;5001699;28;20072;-75
2022/11/16 12:59:15;;;;;;;9.70;3.67;;;12.40;99.90;;;;;;5010505;28;20128;-75
2022/11/16 13:02:04;;;;;;;7.15;2.97;;;12.30;99.90;;;;;;4992190;28;20026;-76
2022/11/16 13:04:40;;;;;;;9.07;3.97;;;12.30;99.90;;;;;;5007358;28;20030;-76
2022/11/16 13:07:28;;;;;;;9.10;3.28;;;12.20;99.90;;;;;;5003504;28;20275;-75
2022/11/16 13:10:21;;;;;;;5.82;2.75;;;11.70;99.90;;;;;;5002240;28;20022;-76
2022/11/16 13:12:51;;;;;;;10.20;2.75;;;12.10;99.90;;;;;;4994473;28;20089;-75
2022/11/16 13:15:19;;;;;;;;;;;11.70;99.90;;;;;;4998191;28;20054;-76
2022/11/16 13:18:00;;;;;;;5.32;2.70;;;11.70;99.90;;;;;;4995634;28;19909;-76
2022/11/16 13:20:32;;;;;;;6.43;2.75;;;12.10;99.90;;;;;;5004805;28;20030;-76
2022/11/16 13:23:08;;;;;;;7.30;2.85;;;11.90;99.90;;;;;;4999529;28;20390;-76
2022/11/16 13:25:59;;;;;;;6.30;2.83;;;12.00;99.90;;;;;;5000867;28;20057;-77
2022/11/16 13:28:24;;;;;;;;;;;11.30;99.90;;;;;;4994541;28;20026;-76
2022/11/16 13:31:21;;;;;;;8.43;2.75;;;11.70;99.90;;;;;;4992925;28;19912;-76
2022/11/16 13:33:58;;;;;;;9.77;2.63;;;11.40;99.90;;;;;;4992887;28;20034;-76
2022/11/16 13:36:36;;;;;;;5.75;2.35;;;11.70;99.90;;;;;;4991350;28;20018;-76
2022/11/16 13:39:03;;;;;;;6.03;2.17;;;11.50;99.90;;;;;;4995362;28;20491;-76
2022/11/16 13:41:40;;;;;;;7.55;2.38;;;11.20;99.90;;;;;;4996906;28;20033;-76
2022/11/16 13:44:19;;;;;;;4.90;2.35;;;11.10;99.90;;;;;;4991737;28;20065;-76
2022/11/16 13:47:03;;;;;;;9.47;2.70;;;11.40;99.90;;;;;;4991568;28;20119;-76
2022/11/16 13:49:37;;;;;;;8.90;2.90;;;11.00;99.90;;;;;;5010720;28;20030;-77